Time;durP1;ratioP1;P1;durP2;ratioP2;P2;SDS_P1;SDS_P2;PMS_P1;PMS_P2;Temp;Humidity;BMP_temperature;BMP_pressure;BME280_temperature;BME280_humidity;BME280_pressure;Samples;Min_cycle;Max_cycle;Signal;HPM_P1;HPM_P2
2023/03/06 00:02:20;;;;;;;5.95;3.00;;;;;;;5.97;84.56;100500.28;5035971;28;20571;-49
2023/03/06 00:04:47;;;;;;;3.88;2.30;;;;;;;5.95;84.68;100486.06;5012735;28;20053;-48
2023/03/06 00:07:14;;;;;;;5.45;2.78;;;;;;;5.95;84.48;100488.81;5029389;28;20047;-47
2023/03/06 00:09:40;;;;;;;4.60;2.53;;;;;;;5.92;84.89;100481.22;5030316;28;20045;-51
2023/03/06 00:12:08;;;;;;;5.07;3.63;;;;;;;5.89;84.55;100487.34;5030272;28;20480;-50
2023/03/06 00:14:34;;;;;;;4.43;2.75;;;;;;;5.85;84.88;100473.44;5030551;28;20053;-47
2023/03/06 00:17:01;;;;;;;5.78;3.08;;;;;;;5.83;84.83;100475.66;5030067;28;20127;-49
2023/03/06 00:19:27;;;;;;;6.90;2.50;;;;;;;5.81;84.82;100468.88;5030283;28;20057;-47
2023/03/06 00:21:54;;;;;;;4.75;3.20;;;;;;;5.77;85.02;100471.44;5030194;28;20092;-48
2023/03/06 00:24:21;;;;;;;6.10;3.22;;;;;;;5.77;84.81;100473.41;5030313;28;20537;-48
2023/03/06 00:26:48;;;;;;;4.72;2.75;;;;;;;5.75;85.34;100468.22;5030512;28;20415;-50
2023/03/06 00:29:15;;;;;;;5.88;2.60;;;;;;;5.73;84.93;100466.91;5029918;28;20051;-47
2023/03/06 00:31:45;;;;;;;5.30;3.03;;;;;;;5.71;85.35;100458.19;5012434;28;20049;-47
2023/03/06 00:34:12;;;;;;;7.50;3.35;;;;;;;5.69;85.35;100452.22;5030082;28;20056;-48
2023/03/06 00:36:38;;;;;;;8.15;4.00;;;;;;;5.68;85.52;100458.84;5030516;28;20045;-47
2023/03/06 00:39:05;;;;;;;12.68;4.18;;;;;;;5.69;85.69;100454.97;5029339;28;20148;-47
2023/03/06 00:41:32;;;;;;;10.23;4.30;;;;;;;5.67;85.56;100451.72;5030588;28;20049;-47
2023/03/06 00:43:58;;;;;;;6.60;4.03;;;;;;;5.66;85.61;100444.63;5029673;28;20042;-47
2023/03/06 00:46:25;;;;;;;6.55;3.90;;;;;;;5.65;85.73;100440.25;5029993;28;20050;-47
2023/03/06 00:48:52;;;;;;;3.17;2.35;;;;;;;5.63;85.73;100428.78;5029715;28;20129;-47
2023/03/06 00:51:20;;;;;;;5.95;3.03;;;;;;;5.61;85.90;100436.53;5029746;28;20419;-50
2023/03/06 00:53:47;;;;;;;5.65;3.15;;;;;;;5.59;85.91;100436.84;5029623;28;20041;-49
2023/03/06 00:56:14;;;;;;;4.95;3.60;;;;;;;5.57;85.97;100432.78;5029514;28;20037;-47
2023/03/06 00:58:41;;;;;;;4.00;3.08;;;;;;;5.54;85.76;100426.00;5029414;28;20057;-48
2023/03/06 01:01:07;;;;;;;5.75;2.97;;;;;;;5.53;86.15;100433.44;5033500;28;20136;-53
2023/03/06 01:03:34;;;;;;;5.07;2.85;;;;;;;5.53;86.19;100421.66;5049260;28;20037;-47
2023/03/06 01:06:01;;;;;;;5.38;3.38;;;;;;;5.54;86.08;100429.56;5049401;28;20056;-49
2023/03/06 01:08:29;;;;;;;8.18;2.97;;;;;;;5.56;86.20;100417.47;5049425;28;20049;-49
2023/03/06 01:10:55;;;;;;;3.47;3.05;;;;;;;5.58;86.22;100412.44;5049201;28;20065;-47
2023/03/06 01:13:22;;;;;;;8.05;3.90;;;;;;;5.62;86.56;100407.91;5031994;28;20044;-50
2023/03/06 01:15:49;;;;;;;5.68;3.50;;;;;;;5.63;86.42;100413.13;5029887;28;20048;-49
2023/03/06 01:18:15;;;;;;;5.45;4.57;;;;;;;5.65;86.57;100410.84;5049124;28;20499;-49
2023/03/06 01:20:42;;;;;;;5.15;3.75;;;;;;;5.67;86.34;100407.75;5049124;28;20152;-46
2023/03/06 01:23:09;;;;;;;4.90;3.85;;;;;;;5.69;86.38;100400.03;5048783;28;20057;-47
2023/03/06 01:25:35;;;;;;;6.53;4.13;;;;;;;5.69;86.43;100392.63;5048920;28;20103;-47
2023/03/06 01:28:02;;;;;;;13.43;3.58;;;;;;;5.67;86.55;100388.53;5049202;28;20439;-46
2023/03/06 01:30:29;;;;;;;9.05;3.58;;;;;;;5.66;86.66;100395.19;5049293;28;20041;-48
2023/03/06 01:32:56;;;;;;;5.97;3.67;;;;;;;5.66;86.49;100384.19;5048512;28;20099;-48
2023/03/06 01:35:22;;;;;;;5.47;3.92;;;;;;;5.65;86.87;100379.81;5049090;28;20049;-47
2023/03/06 01:37:49;;;;;;;6.00;3.67;;;;;;;5.64;86.84;100376.25;5030910;28;20079;-47
2023/03/06 01:40:16;;;;;;;5.78;3.42;;;;;;;5.64;86.94;100379.00;5048382;28;20463;-47
2023/03/06 01:42:42;;;;;;;10.10;4.35;;;;;;;5.62;86.87;100369.47;5048614;28;20049;-47
2023/03/06 01:45:11;;;;;;;8.45;4.00;;;;;;;5.60;86.82;100379.97;5048529;28;20465;-48
2023/03/06 01:47:38;;;;;;;7.55;3.65;;;;;;;5.58;87.18;100371.25;5049181;28;20135;-52
2023/03/06 01:50:08;;;;;;;9.50;4.47;;;;;;;5.56;87.23;100368.03;5048517;28;20041;-47
2023/03/06 01:52:44;;;;;;;5.97;3.53;;;;;;;5.57;87.22;100366.88;5035362;28;20418;-48
2023/03/06 01:55:18;;;;;;;8.15;3.83;;;;;;;5.59;87.17;100367.41;5048501;28;20056;-46
2023/03/06 01:57:51;;;;;;;7.15;4.03;;;;;;;5.57;87.23;100362.22;5048432;28;20430;-47
2023/03/06 02:00:21;;;;;;;8.65;3.28;;;;;;;5.55;87.29;100350.75;5048563;28;20047;-47
2023/03/06 02:03:14;;;;;;;6.75;4.22;;;;;;;5.53;87.23;100347.53;5048494;28;20048;-47
2023/03/06 02:05:43;;;;;;;5.95;3.13;;;;;;;5.53;87.23;100353.03;5042740;28;20045;-48
2023/03/06 02:08:13;;;;;;;6.63;4.38;;;;;;;5.54;87.54;100343.63;5048376;28;20041;-46
2023/03/06 02:10:43;;;;;;;7.38;3.55;;;;;;;5.55;87.25;100342.50;5055171;28;20057;-46
2023/03/06 02:13:09;;;;;;;6.15;4.18;;;;;;;5.59;87.36;100339.94;5055118;28;20047;-46
2023/03/06 02:15:36;;;;;;;6.38;4.10;;;;;;;5.58;87.79;100344.63;5055170;28;20049;-50
2023/03/06 02:18:03;;;;;;;7.82;4.80;;;;;;;5.56;87.50;100346.84;5054759;28;20049;-47
2023/03/06 02:20:36;;;;;;;6.55;3.70;;;;;;;5.56;87.95;100335.09;5054996;28;20075;-46
2023/03/06 02:23:16;;;;;;;9.60;4.05;;;;;;;5.56;87.80;100330.38;5055399;28;20055;-46
2023/03/06 02:25:49;;;;;;;6.60;4.45;;;;;;;5.56;87.78;100335.09;5055180;28;20064;-47
2023/03/06 02:28:20;;;;;;;4.95;4.20;;;;;;;5.58;88.10;100324.59;5042145;28;20487;-47
2023/03/06 02:30:49;;;;;;;6.72;3.80;;;;;;;5.59;87.85;100317.97;5054439;28;20045;-49
2023/03/06 02:33:19;;;;;;;4.38;3.72;;;;;;;5.63;88.27;100316.19;5054861;28;20037;-47
2023/03/06 02:35:51;;;;;;;7.45;4.28;;;;;;;5.64;87.95;100320.56;5054670;28;20059;-47
2023/03/06 02:38:20;;;;;;;4.00;3.20;;;;;;;5.67;88.24;100308.91;5055109;28;20522;-46
2023/03/06 02:40:49;;;;;;;6.22;3.55;;;;;;;5.66;88.30;100315.53;5051465;28;20041;-47
2023/03/06 02:43:27;;;;;;;5.93;3.53;;;;;;;5.65;88.30;100300.19;5054811;28;20402;-48
2023/03/06 02:45:54;;;;;;;8.20;4.20;;;;;;;5.67;88.41;100306.16;5054557;28;20044;-47
2023/03/06 02:48:21;;;;;;;5.07;3.47;;;;;;;5.69;88.64;100290.19;5054690;28;20056;-47
2023/03/06 02:50:48;;;;;;;8.52;4.60;;;;;;;5.67;88.53;100292.44;5054740;28;20103;-47
2023/03/06 02:53:17;;;;;;;4.65;3.65;;;;;;;5.66;88.78;100296.31;5054534;28;20079;-49
2023/03/06 02:55:45;;;;;;;7.45;4.03;;;;;;;5.66;88.51;100294.38;5054916;28;20060;-48
2023/03/06 02:58:12;;;;;;;4.72;3.65;;;;;;;5.65;89.17;100298.25;5054400;28;20049;-46
2023/03/06 03:00:39;;;;;;;5.18;3.20;;;;;;;5.65;89.30;100284.53;5074704;22;20106;-50
2023/03/06 03:03:07;;;;;;;6.32;3.17;;;;;;;5.64;89.25;100285.66;5053662;28;20045;-53
2023/03/06 03:05:33;;;;;;;5.80;3.72;;;;;;;5.65;89.03;100291.94;5054665;28;20051;-50
2023/03/06 03:08:00;;;;;;;5.25;3.70;;;;;;;5.64;89.48;100284.84;5054606;28;20045;-45
2023/03/06 03:10:27;;;;;;;6.28;3.67;;;;;;;5.66;89.50;100279.84;5054560;28;20098;-47
2023/03/06 03:12:54;;;;;;;6.13;4.78;;;;;;;5.66;89.47;100266.13;5054962;28;20053;-44
2023/03/06 03:15:21;;;;;;;9.82;4.15;;;;;;;5.67;89.49;100276.75;5054277;28;20084;-46
2023/03/06 03:17:47;;;;;;;5.20;4.07;;;;;;;5.69;89.72;100273.72;5054041;28;20119;-46
2023/03/06 03:20:18;;;;;;;5.40;3.72;;;;;;;5.69;89.91;100270.97;5053293;28;20045;-48
2023/03/06 03:22:50;;;;;;;4.63;3.53;;;;;;;5.69;89.84;100252.56;5051038;28;20045;-48
2023/03/06 03:25:17;;;;;;;8.90;4.53;;;;;;;5.69;89.83;100257.22;5050859;28;20124;-46
2023/03/06 03:27:44;;;;;;;7.65;3.78;;;;;;;5.70;89.78;100253.34;5050928;28;20049;-45
2023/03/06 03:30:12;;;;;;;5.65;3.50;;;;;;;5.70;89.91;100237.66;5051660;28;20051;-53
2023/03/06 03:32:39;;;;;;;3.63;3.00;;;;;;;5.71;90.18;100238.47;5051061;28;20052;-45
2023/03/06 03:35:08;;;;;;;6.03;3.15;;;;;;;5.72;90.07;100242.84;5051073;28;20053;-45
2023/03/06 03:37:35;;;;;;;4.22;3.55;;;;;;;5.72;90.18;100245.59;5051064;28;20041;-46
2023/03/06 03:40:03;;;;;;;3.80;3.15;;;;;;;5.70;90.53;100232.19;5051057;28;20041;-46
2023/03/06 03:42:30;;;;;;;5.65;2.75;;;;;;;5.70;90.42;100237.66;5051095;28;20037;-45
2023/03/06 03:44:57;;;;;;;3.78;2.90;;;;;;;5.71;90.35;100243.97;5050728;28;20406;-45
2023/03/06 03:47:23;;;;;;;6.03;3.33;;;;;;;5.70;90.59;100236.84;5051065;28;20307;-45
2023/03/06 03:49:50;;;;;;;7.63;3.30;;;;;;;5.71;90.69;100233.00;5050904;28;20040;-47
2023/03/06 03:52:17;;;;;;;7.60;3.45;;;;;;;5.70;90.71;100232.19;5050612;28;20136;-47
2023/03/06 03:54:43;;;;;;;4.38;3.10;;;;;;;5.69;91.03;100224.28;5050896;28;20063;-47
2023/03/06 03:57:10;;;;;;;4.05;3.03;;;;;;;5.67;90.74;100221.03;5050569;28;20049;-45
2023/03/06 03:59:37;;;;;;;6.35;2.88;;;;;;;5.65;90.74;100213.13;5050578;28;20055;-45
2023/03/06 04:02:04;;;;;;;3.42;2.90;;;;;;;5.65;90.99;100220.56;5050284;28;20060;-46
2023/03/06 04:04:30;;;;;;;4.53;2.90;;;;;;;5.60;90.97;100210.53;5051105;28;20450;-44
2023/03/06 04:06:57;;;;;;;3.40;2.40;;;;;;;5.61;91.06;100211.38;5032510;28;20144;-45
2023/03/06 04:09:24;;;;;;;4.75;2.80;;;;;;;5.62;90.87;100207.47;5050514;28;20387;-48
2023/03/06 04:11:50;;;;;;;5.40;3.58;;;;;;;5.59;91.17;100202.66;5032570;28;20380;-48
2023/03/06 04:14:17;;;;;;;7.03;3.58;;;;;;;5.59;91.13;100208.13;5050332;28;20056;-44
2023/03/06 04:16:44;;;;;;;3.70;3.20;;;;;;;5.56;90.86;100198.59;5050098;28;20048;-45
2023/03/06 04:19:10;;;;;;;2.90;2.65;;;;;;;5.52;91.19;100194.88;5031451;28;20060;-49
2023/03/06 04:21:37;;;;;;;4.72;2.70;;;;;;;5.48;91.35;100200.22;5051279;28;20106;-46
2023/03/06 04:24:04;;;;;;;7.05;2.75;;;;;;;5.45;91.29;100198.13;5050156;28;20065;-45
2023/03/06 04:26:31;;;;;;;4.53;2.60;;;;;;;5.40;91.32;100195.53;5050395;28;20035;-46
2023/03/06 04:28:58;;;;;;;3.90;2.72;;;;;;;5.36;91.27;100189.09;5050167;28;20055;-54
2023/03/06 04:31:25;;;;;;;2.63;2.40;;;;;;;5.32;91.13;100182.63;5050096;28;20151;-52
2023/03/06 04:33:51;;;;;;;5.00;2.47;;;;;;;5.28;91.19;100184.41;5049054;28;20479;-45
2023/03/06 04:36:32;;;;;;;3.97;2.70;;;;;;;5.24;91.31;100180.69;5049982;28;20052;-45
2023/03/06 04:39:00;;;;;;;6.25;3.97;;;;;;;5.20;91.38;100174.25;5050149;28;20045;-49
2023/03/06 04:41:27;;;;;;;4.47;3.08;;;;;;;5.16;91.16;100172.47;5050337;28;20098;-45
2023/03/06 04:43:53;;;;;;;5.55;2.65;;;;;;;5.13;91.30;100184.09;5049738;28;20111;-45
2023/03/06 04:46:20;;;;;;;2.28;1.90;;;;;;;5.09;91.58;100172.13;5050133;28;20117;-45
2023/03/06 04:48:47;;;;;;;3.05;2.20;;;;;;;5.04;91.65;100164.88;5049520;28;20510;-45
2023/03/06 04:51:14;;;;;;;2.85;2.42;;;;;;;5.03;91.63;100162.47;5049901;28;20048;-45
2023/03/06 04:53:41;;;;;;;4.13;1.98;;;;;;;5.03;91.55;100154.25;5049561;28;20052;-44
2023/03/06 04:56:07;;;;;;;5.07;2.53;;;;;;;5.01;91.49;100151.81;5050678;28;20048;-45
2023/03/06 04:58:34;;;;;;;3.00;2.40;;;;;;;5.00;91.59;100149.41;5049047;28;20060;-46
2023/03/06 05:01:02;;;;;;;5.85;2.72;;;;;;;4.98;91.58;100149.69;5049174;28;20063;-44
2023/03/06 05:03:28;;;;;;;6.35;2.85;;;;;;;4.99;91.29;100162.31;5031464;28;20468;-45
2023/03/06 05:05:55;;;;;;;4.80;3.55;;;;;;;4.99;91.32;100162.31;5049468;28;20071;-44
2023/03/06 05:08:22;;;;;;;7.07;3.00;;;;;;;4.97;91.34;100148.09;5048912;28;20049;-44
2023/03/06 05:10:58;;;;;;;5.55;2.90;;;;;;;4.98;91.41;100148.94;5049359;28;20461;-45
2023/03/06 05:13:25;;;;;;;5.88;3.00;;;;;;;4.97;91.38;100148.09;5049568;28;20541;-46
2023/03/06 05:15:53;;;;;;;4.90;2.88;;;;;;;4.96;91.59;100153.91;5049146;28;20055;-44
2023/03/06 05:18:20;;;;;;;5.32;3.15;;;;;;;4.97;91.31;100153.59;5049058;28;20522;-45
2023/03/06 05:20:47;;;;;;;5.75;3.05;;;;;;;4.97;91.36;100148.09;5049103;28;20041;-45
2023/03/06 05:23:13;;;;;;;4.60;2.72;;;;;;;4.98;91.22;100146.19;5048946;28;20037;-45
2023/03/06 05:25:41;;;;;;;3.97;2.50;;;;;;;4.98;91.33;100148.94;5030819;28;20057;-51
2023/03/06 05:28:08;;;;;;;3.72;3.20;;;;;;;4.99;91.44;100150.50;5048668;28;20033;-44
2023/03/06 05:30:34;;;;;;;7.63;3.63;;;;;;;4.99;91.22;100145.84;5054771;28;20053;-45
2023/03/06 05:33:01;;;;;;;5.63;3.00;;;;;;;5.00;91.48;100141.97;5049119;28;20045;-44
2023/03/06 05:35:28;;;;;;;3.45;2.83;;;;;;;4.97;91.24;100142.63;5048740;28;20437;-45
2023/03/06 05:37:56;;;;;;;5.18;2.63;;;;;;;4.98;91.62;100141.47;5048748;28;20053;-44
2023/03/06 05:40:23;;;;;;;4.13;2.75;;;;;;;4.97;91.07;100131.66;5048530;28;20053;-45
2023/03/06 05:42:49;;;;;;;3.72;2.78;;;;;;;4.97;91.31;100131.66;5049090;28;20057;-47
2023/03/06 05:45:16;;;;;;;3.85;2.92;;;;;;;4.92;90.98;100126.34;5048066;28;20055;-47
2023/03/06 05:47:43;;;;;;;6.07;2.85;;;;;;;4.87;91.13;100132.75;5060680;28;20052;-45
2023/03/06 05:50:10;;;;;;;5.13;2.50;;;;;;;4.85;91.17;100129.53;5048367;28;20127;-46
2023/03/06 05:52:38;;;;;;;4.47;2.75;;;;;;;4.83;90.97;100133.72;5048487;28;20044;-46
2023/03/06 05:55:06;;;;;;;4.22;2.28;;;;;;;4.82;91.24;100135.66;5048582;28;20048;-45
2023/03/06 05:57:33;;;;;;;5.35;2.72;;;;;;;4.82;91.07;100132.09;5048631;28;20047;-45
2023/03/06 05:59:59;;;;;;;4.90;2.83;;;;;;;4.81;91.22;100131.31;5036592;28;20091;-45
2023/03/06 06:02:26;;;;;;;8.18;3.50;;;;;;;4.81;91.36;100144.22;5048914;28;20064;-45
2023/03/06 06:04:53;;;;;;;4.20;2.88;;;;;;;4.80;91.38;100132.44;5030254;28;20068;-46
2023/03/06 06:07:19;;;;;;;5.40;3.00;;;;;;;4.82;91.38;100134.84;5048749;28;20045;-45
2023/03/06 06:09:46;;;;;;;3.97;2.63;;;;;;;4.84;91.19;100133.41;5048161;28;20057;-48
2023/03/06 06:12:13;;;;;;;6.57;3.25;;;;;;;4.86;91.41;100130.34;5048228;28;20059;-45
2023/03/06 06:14:40;;;;;;;4.63;3.30;;;;;;;4.87;91.19;100126.50;5048287;28;20479;-45
2023/03/06 06:17:06;;;;;;;4.18;2.88;;;;;;;4.88;91.13;100117.13;5048477;28;20482;-44
2023/03/06 06:19:34;;;;;;;5.55;3.20;;;;;;;4.91;91.49;100116.47;5048435;28;20044;-45
2023/03/06 06:22:02;;;;;;;4.72;3.15;;;;;;;4.93;91.21;100120.50;5048239;28;20098;-44
2023/03/06 06:24:30;;;;;;;5.22;2.80;;;;;;;4.96;91.49;100120.97;5048183;28;20549;-44
2023/03/06 06:26:57;;;;;;;3.65;2.78;;;;;;;4.98;91.11;100110.53;5048545;28;20045;-44
2023/03/06 06:29:28;;;;;;;4.15;2.38;;;;;;;4.98;91.28;100105.03;5047865;28;20455;-45
2023/03/06 06:31:56;;;;;;;4.38;2.15;;;;;;;4.96;91.03;100097.13;5048206;28;20064;-44
2023/03/06 06:34:23;;;;;;;5.88;2.38;;;;;;;4.93;91.09;100100.50;5048343;28;20060;-45
2023/03/06 06:36:51;;;;;;;5.18;2.53;;;;;;;4.89;91.07;100096.81;5048787;28;20045;-45
2023/03/06 06:39:21;;;;;;;4.75;2.88;;;;;;;4.83;91.42;100081.63;5013812;28;20048;-45
2023/03/06 06:41:50;;;;;;;3.90;2.40;;;;;;;4.81;91.51;100086.63;5029978;28;20363;-51
2023/03/06 06:44:39;;;;;;;7.50;3.00;;;;;;;4.74;91.39;100084.38;5047907;28;20041;-46
2023/03/06 06:47:06;;;;;;;5.10;2.30;;;;;;;4.72;91.25;100081.16;5048002;28;20049;-44
2023/03/06 06:49:53;;;;;;;3.30;2.35;;;;;;;4.69;91.58;100087.28;5048165;28;20136;-45
2023/03/06 06:52:21;;;;;;;3.15;2.17;;;;;;;4.68;91.52;100073.91;5048210;28;20049;-46
2023/03/06 06:54:48;;;;;;;2.75;2.25;;;;;;;4.65;91.26;100074.53;5060240;28;20044;-46
2023/03/06 06:57:16;;;;;;;2.53;2.08;;;;;;;4.65;91.22;100077.28;5051867;28;20045;-45
2023/03/06 06:59:42;;;;;;;3.28;2.42;;;;;;;4.63;91.49;100071.31;5051653;28;20048;-45
2023/03/06 07:02:18;;;;;;;3.22;2.50;;;;;;;4.61;91.42;100068.06;5033568;28;20041;-45
2023/03/06 07:04:45;;;;;;;2.83;2.13;;;;;;;4.62;91.39;100064.22;5051692;28;20131;-46
2023/03/06 07:07:27;;;;;;;4.95;2.50;;;;;;;4.61;91.47;100059.84;5033623;28;20037;-47
2023/03/06 07:09:55;;;;;;;6.28;3.15;;;;;;;4.62;91.81;100064.22;5051363;28;20513;-46
2023/03/06 07:12:22;;;;;;;2.92;2.40;;;;;;;4.63;91.81;100065.84;5051763;28;20111;-45
2023/03/06 07:14:49;;;;;;;3.95;3.58;;;;;;;4.64;91.64;100061.94;5051475;28;20049;-47
2023/03/06 07:17:16;;;;;;;5.40;2.85;;;;;;;4.65;91.72;100063.56;5051741;28;20072;-53
2023/03/06 07:19:43;;;;;;;3.45;2.22;;;;;;;4.67;91.66;100072.28;5049963;28;20076;-45
2023/03/06 07:22:10;;;;;;;2.20;1.83;;;;;;;4.67;91.52;100064.84;5051509;28;20049;-47
2023/03/06 07:24:37;;;;;;;5.63;2.28;;;;;;;4.69;91.75;100061.78;5051266;28;20045;-45
2023/03/06 07:27:03;;;;;;;4.47;1.65;;;;;;;4.68;91.83;100065.66;5051309;28;20056;-46
2023/03/06 07:29:32;;;;;;;2.05;1.55;;;;;;;4.68;91.47;100062.94;5051533;28;20049;-47
2023/03/06 07:31:59;;;;;;;4.63;2.63;;;;;;;4.65;91.75;100052.59;5051459;28;20153;-46
2023/03/06 07:34:26;;;;;;;3.30;3.00;;;;;;;4.66;91.70;100060.50;5051241;28;20063;-45
2023/03/06 07:36:53;;;;;;;3.85;1.40;;;;;;;4.65;91.90;100056.16;5051108;28;20048;-45
2023/03/06 07:39:19;;;;;;;2.63;1.40;;;;;;;4.66;91.47;100056.97;5051251;28;20495;-47
2023/03/06 07:41:47;;;;;;;3.83;1.88;;;;;;;4.68;91.69;100051.97;5051265;28;20106;-48
2023/03/06 07:44:13;;;;;;;2.58;1.90;;;;;;;4.71;91.45;100043.09;5033177;28;20044;-48
2023/03/06 07:46:40;;;;;;;4.00;2.20;;;;;;;4.73;91.39;100040.84;5051302;28;20106;-46
2023/03/06 07:49:07;;;;;;;4.97;1.95;;;;;;;4.73;91.56;100043.56;5051177;28;20052;-45
2023/03/06 07:51:34;;;;;;;2.88;2.10;;;;;;;4.76;91.44;100043.75;5051201;28;20388;-45
2023/03/06 07:54:02;;;;;;;4.47;2.50;;;;;;;4.76;91.75;100042.94;5050864;28;20131;-45
2023/03/06 07:56:28;;;;;;;3.67;2.08;;;;;;;4.79;91.68;100056.00;5050747;28;21160;-45
2023/03/06 07:58:55;;;;;;;3.22;1.80;;;;;;;4.83;91.46;100041.31;5032524;28;20139;-47
2023/03/06 08:01:23;;;;;;;5.88;2.90;;;;;;;4.85;91.38;100040.97;5050986;28;20140;-51
2023/03/06 08:03:50;;;;;;;2.70;2.30;;;;;;;4.87;91.71;100039.50;5050472;28;20383;-47
2023/03/06 08:06:18;;;;;;;3.20;2.30;;;;;;;4.90;91.38;100038.88;5050603;28;20128;-46
2023/03/06 08:08:46;;;;;;;2.28;2.03;;;;;;;4.92;91.56;100035.81;5050439;28;20368;-45
2023/03/06 08:11:15;;;;;;;6.50;3.20;;;;;;;4.94;91.66;100033.56;5050208;28;20084;-46
2023/03/06 08:13:42;;;;;;;4.75;2.45;;;;;;;4.97;91.64;100024.69;5050634;28;20072;-47
2023/03/06 08:16:09;;;;;;;4.35;2.75;;;;;;;5.00;91.49;100035.00;5049772;28;20064;-52
2023/03/06 08:18:40;;;;;;;6.53;2.17;;;;;;;5.04;91.43;100033.19;5050358;28;20048;-46
2023/03/06 08:21:12;;;;;;;3.00;1.85;;;;;;;5.06;91.63;100028.19;5049890;28;20375;-46
2023/03/06 08:23:40;;;;;;;3.97;2.30;;;;;;;5.06;91.35;100022.69;5050512;28;20049;-45
2023/03/06 08:26:18;;;;;;;3.40;2.42;;;;;;;5.10;91.60;100025.63;5049829;28;20044;-46
2023/03/06 08:28:45;;;;;;;6.90;2.78;;;;;;;5.13;91.74;100027.72;5049837;28;20052;-46
2023/03/06 08:31:24;;;;;;;3.70;2.25;;;;;;;5.18;91.34;100025.59;5049575;28;20033;-46
2023/03/06 08:33:51;;;;;;;7.45;2.50;;;;;;;5.25;91.62;100025.88;5050008;28;20048;-45
2023/03/06 08:36:18;;;;;;;3.88;2.05;;;;;;;5.30;91.33;100025.72;5050601;28;20040;-45
2023/03/06 08:38:45;;;;;;;4.93;2.40;;;;;;;5.33;91.47;100016.00;5049755;28;20052;-47
2023/03/06 08:41:12;;;;;;;4.13;2.33;;;;;;;5.37;91.61;100020.53;5031813;28;20367;-45
2023/03/06 08:43:39;;;;;;;2.10;1.88;;;;;;;5.41;91.28;100021.47;5049502;28;20118;-48
2023/03/06 08:46:05;;;;;;;2.55;1.90;;;;;;;5.46;91.53;100020.50;5050145;28;20558;-46
2023/03/06 08:48:32;;;;;;;2.83;1.73;;;;;;;5.50;91.21;100024.19;5049506;28;20052;-46
2023/03/06 08:50:59;;;;;;;3.13;2.15;;;;;;;5.50;91.19;100021.47;5050085;28;20403;-45
2023/03/06 08:53:26;;;;;;;2.30;1.92;;;;;;;5.55;91.02;100015.78;5049899;28;20045;-45
2023/03/06 08:56:18;;;;;;;4.90;2.25;;;;;;;5.61;91.42;100013.66;5049630;28;20068;-46
2023/03/06 08:58:45;;;;;;;4.03;2.20;;;;;;;5.63;91.09;100016.88;5049520;28;20052;-46
2023/03/06 09:01:26;;;;;;;4.38;2.60;;;;;;;5.63;91.19;100011.38;5034601;28;20511;-52
2023/03/06 09:03:55;;;;;;;5.25;2.53;;;;;;;5.67;91.04;100020.56;5016434;28;20129;-46
2023/03/06 09:06:24;;;;;;;5.03;2.60;;;;;;;5.69;91.11;100010.88;5029095;28;20087;-51
2023/03/06 09:08:51;;;;;;;4.55;2.58;;;;;;;5.71;91.20;100016.03;5029460;28;20046;-45
2023/03/06 09:11:21;;;;;;;3.72;2.80;;;;;;;5.80;91.26;100009.34;5029607;28;20124;-45
2023/03/06 09:13:48;;;;;;;5.13;3.05;;;;;;;5.92;91.29;100014.19;5029200;28;20414;-50
2023/03/06 09:16:15;;;;;;;3.92;2.33;;;;;;;6.00;90.97;100010.56;5029397;28;20058;-46
2023/03/06 09:18:42;;;;;;;5.55;2.25;;;;;;;6.02;91.10;100008.28;5028555;28;20051;-50
2023/03/06 09:21:09;;;;;;;2.83;2.10;;;;;;;6.02;90.79;100006.34;5028825;28;20056;-46
2023/03/06 09:23:38;;;;;;;4.57;1.90;;;;;;;6.06;90.78;100003.75;5029222;28;20487;-50
2023/03/06 09:26:05;;;;;;;2.88;2.53;;;;;;;6.15;90.96;100012.72;5011027;28;20734;-47
2023/03/06 09:28:37;;;;;;;4.30;2.47;;;;;;;6.19;90.83;100010.13;5029956;28;20065;-46
2023/03/06 09:31:12;;;;;;;4.00;2.08;;;;;;;6.22;91.04;100007.53;5029115;28;20041;-47
2023/03/06 09:33:39;;;;;;;4.20;1.98;;;;;;;6.27;90.79;100007.31;5011384;28;20060;-45
2023/03/06 09:36:10;;;;;;;5.57;2.28;;;;;;;6.34;90.99;100009.53;5028804;28;20034;-51
2023/03/06 09:38:37;;;;;;;6.05;3.00;;;;;;;6.38;90.80;99999.50;5029024;28;20057;-45
2023/03/06 09:41:13;;;;;;;4.65;2.70;;;;;;;6.40;90.56;100003.50;5010947;28;20041;-50
2023/03/06 09:43:44;;;;;;;9.68;3.03;;;;;;;6.44;90.74;99998.13;5011603;28;20049;-46
2023/03/06 09:46:31;;;;;;;5.38;2.30;;;;;;;6.47;90.72;99998.25;5029044;28;20050;-47
2023/03/06 09:49:37;;;;;;;7.20;2.72;;;;;;;6.46;90.43;99993.91;5029022;28;20061;-50
2023/03/06 09:52:24;;;;;;;4.43;2.30;;;;;;;6.47;90.52;99998.25;4983400;28;20214;-54
2023/03/06 09:54:58;;;;;;;6.40;2.28;;;;;;;6.44;90.53;100001.69;5027558;28;20385;-48
2023/03/06 09:57:29;;;;;;;8.38;3.85;;;;;;;6.40;90.61;99992.50;5010836;28;20041;-48
2023/03/06 10:00:00;;;;;;;5.43;2.47;;;;;;;6.38;90.47;99994.75;5028362;28;20053;-47
2023/03/06 10:02:42;;;;;;;7.82;2.40;;;;;;;6.40;90.44;99998.00;5043415;28;20079;-45
2023/03/06 10:05:37;;;;;;;6.78;2.60;;;;;;;6.38;90.48;99983.78;5048540;28;20123;-49
2023/03/06 10:08:24;;;;;;;7.30;2.92;;;;;;;6.41;90.39;99987.78;5048630;28;20048;-45
2023/03/06 10:11:02;;;;;;;3.95;3.47;;;;;;;6.41;90.26;99988.59;5048677;28;20053;-52
2023/03/06 10:13:43;;;;;;;5.78;3.38;;;;;;;6.46;90.37;99976.63;5048517;28;20483;-48
2023/03/06 10:16:22;;;;;;;5.90;3.47;;;;;;;6.50;90.55;99981.09;5048389;28;20051;-50
2023/03/06 10:18:49;;;;;;;10.20;4.03;;;;;;;6.52;90.12;99970.56;5048950;28;20082;-53
2023/03/06 10:21:43;;;;;;;8.68;3.50;;;;;;;6.50;90.21;99975.59;5046652;28;20051;-45
2023/03/06 10:24:28;;;;;;;9.15;4.35;;;;;;;6.52;90.21;99976.06;5035146;28;20517;-46
2023/03/06 10:27:23;;;;;;;9.43;3.85;;;;;;;6.51;90.19;99963.44;5048214;28;20056;-46
2023/03/06 10:30:22;;;;;;;8.63;3.10;;;;;;;6.50;89.85;99969.28;5049076;28;20044;-51
2023/03/06 10:32:54;;;;;;;10.15;3.58;;;;;;;6.47;89.90;99970.78;5010118;28;20061;-47
2023/03/06 10:35:27;;;;;;;9.18;4.20;;;;;;;6.46;89.95;99973.88;5052839;28;20658;-48
2023/03/06 10:38:17;;;;;;;10.73;3.88;;;;;;;6.49;89.95;99973.16;5052397;28;20098;-49
2023/03/06 10:41:07;;;;;;;7.10;3.00;;;;;;;6.51;90.05;99963.44;5052069;28;20045;-49
2023/03/06 10:43:35;;;;;;;7.95;3.95;;;;;;;6.53;89.95;99966.69;5038922;28;20040;-45
2023/03/06 10:46:03;;;;;;;9.70;3.50;;;;;;;6.58;89.97;99958.22;5051598;28;20041;-52
2023/03/06 10:48:34;;;;;;;6.60;3.35;;;;;;;6.60;90.02;99964.19;5052142;28;20053;-51
2023/03/06 10:51:14;;;;;;;5.32;1.70;;;;;;;6.61;89.70;99960.31;5052396;28;20048;-46
2023/03/06 10:54:18;;;;;;;6.15;4.45;;;;;;;6.65;90.03;99961.22;5055000;28;20041;-49
2023/03/06 10:56:46;;;;;;;4.40;1.92;;;;;;;6.64;89.99;99965.13;5051795;28;20059;-46
2023/03/06 10:59:24;;;;;;;2.75;1.63;;;;;;;6.65;89.81;99955.72;5052271;28;20048;-51
2023/03/06 11:02:18;;;;;;;2.75;1.73;;;;;;;6.68;89.77;99955.03;5051932;28;20045;-45
2023/03/06 11:04:50;;;;;;;4.72;1.83;;;;;;;6.67;89.98;99953.41;5051802;28;20493;-47
2023/03/06 11:07:19;;;;;;;4.13;2.00;;;;;;;6.69;90.01;99950.34;5052030;28;20052;-44
2023/03/06 11:09:55;;;;;;;4.47;2.40;;;;;;;6.71;90.17;99946.13;5051924;28;20056;-44
2023/03/06 11:12:33;;;;;;;2.47;1.42;;;;;;;6.74;90.27;99942.69;5051458;28;20060;-45
2023/03/06 11:15:08;;;;;;;2.17;0.75;;;;;;;6.76;90.23;99939.59;5051555;28;20478;-43
2023/03/06 11:17:56;;;;;;;1.52;1.10;;;;;;;6.78;90.13;99947.53;5051350;28;20045;-48
2023/03/06 11:20:30;;;;;;;2.38;1.20;;;;;;;6.80;90.25;99948.78;5022485;28;20103;-48
2023/03/06 11:23:29;;;;;;;2.55;1.27;;;;;;;6.81;90.46;99946.81;5051420;28;20479;-44
2023/03/06 11:26:14;;;;;;;3.35;1.70;;;;;;;6.86;90.46;99949.38;5052220;28;20045;-53
2023/03/06 11:29:00;;;;;;;4.57;1.25;;;;;;;6.87;90.40;99938.03;5051538;28;20052;-48
2023/03/06 11:31:52;;;;;;;2.95;2.47;;;;;;;6.95;90.46;99928.88;5047068;28;20128;-46
2023/03/06 11:34:22;;;;;;;3.13;1.75;;;;;;;7.08;90.33;99932.44;5047709;28;20498;-45
2023/03/06 11:37:10;;;;;;;1.65;1.17;;;;;;;7.21;90.48;99925.81;5051710;28;20478;-46
2023/03/06 11:39:46;;;;;;;3.35;1.40;;;;;;;7.22;90.51;99924.69;5051365;28;20045;-45
2023/03/06 11:42:19;;;;;;;1.20;0.93;;;;;;;7.27;90.48;99932.72;5050357;28;20136;-45
2023/03/06 11:44:59;;;;;;;1.00;0.80;;;;;;;7.31;90.48;99928.09;5050713;28;20442;-45
2023/03/06 11:47:35;;;;;;;2.63;1.10;;;;;;;7.38;90.45;99922.84;5050742;28;20037;-45
2023/03/06 11:50:42;;;;;;;3.42;2.40;;;;;;;7.49;90.69;99925.94;5050814;28;20499;-45